sensor_id;sensor_type;location;lat;lon;timestamp;pressure;altitude;pressure_sealevel;temperature;humidity
9307;BME280;4691;47.612;7.610;2023-03-13T00:00:53;98332.13;;;10.30;100.00
9307;BME280;4691;47.612;7.610;2023-03-13T00:03:18;98311.91;;;10.37;100.00
9307;BME280;4691;47.612;7.610;2023-03-13T00:05:44;98311.22;;;10.66;100.00
9307;BME280;4691;47.612;7.610;2023-03-13T00:08:09;98318.34;;;10.77;100.00
9307;BME280;4691;47.612;7.610;2023-03-13T00:10:39;98313.84;;;10.77;100.00
9307;BME280;4691;47.612;7.610;2023-03-13T00:13:05;98311.00;;;10.79;100.00
9307;BME280;4691;47.612;7.610;2023-03-13T00:15:31;98314.22;;;10.73;100.00
9307;BME280;4691;47.612;7.610;2023-03-13T00:17:57;98312.84;;;10.78;100.00
9307;BME280;4691;47.612;7.610;2023-03-13T00:20:22;98308.47;;;10.77;100.00
9307;BME280;4691;47.612;7.610;2023-03-13T00:22:47;98311.59;;;10.82;100.00
9307;BME280;4691;47.612;7.610;2023-03-13T00:25:13;98298.56;;;10.68;100.00
9307;BME280;4691;47.612;7.610;2023-03-13T00:27:38;98292.94;;;10.71;100.00
9307;BME280;4691;47.612;7.610;2023-03-13T00:30:04;98290.09;;;10.63;100.00
9307;BME280;4691;47.612;7.610;2023-03-13T00:32:29;98288.25;;;10.54;100.00
9307;BME280;4691;47.612;7.610;2023-03-13T00:34:54;98278.78;;;10.50;100.00
9307;BME280;4691;47.612;7.610;2023-03-13T00:37:20;98271.94;;;10.57;100.00
9307;BME280;4691;47.612;7.610;2023-03-13T00:39:45;98274.09;;;10.73;100.00
9307;BME280;4691;47.612;7.610;2023-03-13T00:42:11;98282.59;;;10.78;100.00
9307;BME280;4691;47.612;7.610;2023-03-13T00:44:36;98290.16;;;11.03;100.00
9307;BME280;4691;47.612;7.610;2023-03-13T00:47:01;98285.69;;;10.83;100.00
9307;BME280;4691;47.612;7.610;2023-03-13T00:49:26;98284.25;;;10.69;100.00
9307;BME280;4691;47.612;7.610;2023-03-13T00:51:52;98285.66;;;10.73;100.00
9307;BME280;4691;47.612;7.610;2023-03-13T00:54:17;98275.22;;;10.70;100.00
9307;BME280;4691;47.612;7.610;2023-03-13T00:56:43;98271.84;;;10.68;100.00
9307;BME280;4691;47.612;7.610;2023-03-13T00:59:08;98263.38;;;10.63;100.00
9307;BME280;4691;47.612;7.610;2023-03-13T01:01:35;98271.03;;;10.77;100.00
9307;BME280;4691;47.612;7.610;2023-03-13T01:04:06;98262.53;;;10.62;100.00
9307;BME280;4691;47.612;7.610;2023-03-13T01:06:34;98256.59;;;10.59;100.00
9307;BME280;4691;47.612;7.610;2023-03-13T01:09:00;98237.75;;;10.60;100.00
9307;BME280;4691;47.612;7.610;2023-03-13T01:11:30;98235.91;;;10.61;100.00
9307;BME280;4691;47.612;7.610;2023-03-13T01:13:58;98238.06;;;10.67;100.00
9307;BME280;4691;47.612;7.610;2023-03-13T01:16:24;98234.41;;;10.68;100.00
9307;BME280;4691;47.612;7.610;2023-03-13T01:18:53;98235.75;;;10.53;100.00
9307;BME280;4691;47.612;7.610;2023-03-13T01:21:20;98230.03;;;10.36;100.00
9307;BME280;4691;47.612;7.610;2023-03-13T01:23:48;98218.34;;;10.16;100.00
9307;BME280;4691;47.612;7.610;2023-03-13T01:26:13;98204.75;;;9.98;100.00
9307;BME280;4691;47.612;7.610;2023-03-13T01:28:39;98179.41;;;9.93;100.00
9307;BME280;4691;47.612;7.610;2023-03-13T01:31:22;98175.44;;;9.87;100.00
9307;BME280;4691;47.612;7.610;2023-03-13T01:33:49;98122.91;;;9.67;100.00
9307;BME280;4691;47.612;7.610;2023-03-13T01:36:16;98122.00;;;9.56;100.00
9307;BME280;4691;47.612;7.610;2023-03-13T01:38:43;98098.25;;;9.53;100.00
9307;BME280;4691;47.612;7.610;2023-03-13T01:41:11;98072.50;;;9.52;100.00
9307;BME280;4691;47.612;7.610;2023-03-13T01:43:36;98049.03;;;9.46;100.00
9307;BME280;4691;47.612;7.610;2023-03-13T01:49:11;98023.06;;;9.48;100.00
9307;BME280;4691;47.612;7.610;2023-03-13T01:51:43;97998.22;;;9.57;100.00
9307;BME280;4691;47.612;7.610;2023-03-13T01:54:17;97985.50;;;9.40;100.00
9307;BME280;4691;47.612;7.610;2023-03-13T01:56:57;97971.84;;;9.33;100.00
9307;BME280;4691;47.612;7.610;2023-03-13T01:59:28;97955.47;;;9.38;100.00
9307;BME280;4691;47.612;7.610;2023-03-13T02:01:56;97948.78;;;9.53;100.00
9307;BME280;4691;47.612;7.610;2023-03-13T02:04:23;97943.41;;;9.44;100.00
9307;BME280;4691;47.612;7.610;2023-03-13T02:06:55;97924.50;;;9.26;100.00
9307;BME280;4691;47.612;7.610;2023-03-13T02:09:25;97900.31;;;9.18;100.00
9307;BME280;4691;47.612;7.610;2023-03-13T02:11:55;97884.59;;;9.14;100.00
9307;BME280;4691;47.612;7.610;2023-03-13T02:14:26;97857.31;;;9.11;100.00
9307;BME280;4691;47.612;7.610;2023-03-13T02:16:53;97837.38;;;9.05;100.00
9307;BME280;4691;47.612;7.610;2023-03-13T02:19:27;97746.69;;;8.96;100.00
9307;BME280;4691;47.612;7.610;2023-03-13T02:22:09;97714.94;;;8.83;100.00
9307;BME280;4691;47.612;7.610;2023-03-13T02:24:52;97675.38;;;8.88;100.00
9307;BME280;4691;47.612;7.610;2023-03-13T02:27:20;97643.69;;;8.94;100.00
9307;BME280;4691;47.612;7.610;2023-03-13T02:29:45;97616.44;;;8.91;100.00
9307;BME280;4691;47.612;7.610;2023-03-13T02:32:11;97599.06;;;9.06;100.00
9307;BME280;4691;47.612;7.610;2023-03-13T02:34:38;97581.13;;;8.89;100.00
9307;BME280;4691;47.612;7.610;2023-03-13T02:37:06;97570.44;;;8.79;100.00
9307;BME280;4691;47.612;7.610;2023-03-13T02:39:36;97548.28;;;8.79;100.00
9307;BME280;4691;47.612;7.610;2023-03-13T02:42:02;97537.34;;;8.82;100.00
9307;BME280;4691;47.612;7.610;2023-03-13T02:44:28;97530.44;;;8.99;100.00
9307;BME280;4691;47.612;7.610;2023-03-13T02:46:53;97521.91;;;8.95;100.00
9307;BME280;4691;47.612;7.610;2023-03-13T02:49:24;97513.19;;;9.03;100.00
9307;BME280;4691;47.612;7.610;2023-03-13T02:51:52;97500.00;;;9.01;100.00
9307;BME280;4691;47.612;7.610;2023-03-13T02:54:24;97500.56;;;8.85;100.00
9307;BME280;4691;47.612;7.610;2023-03-13T02:56:56;97498.59;;;8.97;100.00
9307;BME280;4691;47.612;7.610;2023-03-13T02:59:23;97492.69;;;9.03;100.00
9307;BME280;4691;47.612;7.610;2023-03-13T03:01:48;97490.59;;;8.97;100.00
9307;BME280;4691;47.612;7.610;2023-03-13T03:04:23;97478.81;;;8.90;100.00
9307;BME280;4691;47.612;7.610;2023-03-13T03:06:49;97465.66;;;8.79;100.00
9307;BME280;4691;47.612;7.610;2023-03-13T03:09:15;97449.09;;;8.85;100.00
9307;BME280;4691;47.612;7.610;2023-03-13T03:11:40;97445.84;;;8.91;100.00
9307;BME280;4691;47.612;7.610;2023-03-13T03:14:07;97442.34;;;8.81;100.00
9307;BME280;4691;47.612;7.610;2023-03-13T03:19:31;97376.31;;;8.75;100.00
9307;BME280;4691;47.612;7.610;2023-03-13T03:21:56;97361.97;;;8.85;100.00
9307;BME280;4691;47.612;7.610;2023-03-13T03:24:22;97351.72;;;8.81;100.00
9307;BME280;4691;47.612;7.610;2023-03-13T03:26:47;97350.91;;;8.70;100.00
9307;BME280;4691;47.612;7.610;2023-03-13T03:29:12;97343.19;;;8.77;100.00
9307;BME280;4691;47.612;7.610;2023-03-13T03:31:38;97335.59;;;8.82;100.00
9307;BME280;4691;47.612;7.610;2023-03-13T03:34:03;97321.16;;;8.85;100.00
9307;BME280;4691;47.612;7.610;2023-03-13T03:36:28;97305.75;;;8.79;100.00
9307;BME280;4691;47.612;7.610;2023-03-13T03:38:54;97283.63;;;8.96;100.00
9307;BME280;4691;47.612;7.610;2023-03-13T03:41:19;97236.25;;;8.90;100.00
9307;BME280;4691;47.612;7.610;2023-03-13T03:43:45;97219.97;;;8.93;100.00
9307;BME280;4691;47.612;7.610;2023-03-13T03:46:12;97218.72;;;8.87;100.00
9307;BME280;4691;47.612;7.610;2023-03-13T03:48:37;97233.06;;;8.86;100.00
9307;BME280;4691;47.612;7.610;2023-03-13T03:51:03;97225.81;;;8.79;100.00
9307;BME280;4691;47.612;7.610;2023-03-13T03:53:28;97216.09;;;8.78;100.00
9307;BME280;4691;47.612;7.610;2023-03-13T03:55:54;97206.44;;;8.77;100.00
9307;BME280;4691;47.612;7.610;2023-03-13T03:58:20;97199.59;;;8.74;100.00
9307;BME280;4691;47.612;7.610;2023-03-13T04:00:46;97195.38;;;8.71;100.00
9307;BME280;4691;47.612;7.610;2023-03-13T04:03:12;97205.03;;;8.72;100.00
9307;BME280;4691;47.612;7.610;2023-03-13T04:05:38;97211.03;;;8.84;100.00
9307;BME280;4691;47.612;7.610;2023-03-13T04:08:03;97206.53;;;8.85;100.00
9307;BME280;4691;47.612;7.610;2023-03-13T04:10:29;97205.66;;;8.94;100.00
9307;BME280;4691;47.612;7.610;2023-03-13T04:12:54;97198.94;;;8.90;100.00
9307;BME280;4691;47.612;7.610;2023-03-13T04:15:19;97184.41;;;9.02;100.00
9307;BME280;4691;47.612;7.610;2023-03-13T04:17:44;97180.63;;;9.05;100.00
9307;BME280;4691;47.612;7.610;2023-03-13T04:20:10;97173.84;;;9.10;100.00
9307;BME280;4691;47.612;7.610;2023-03-13T04:22:37;97191.41;;;8.76;100.00
9307;BME280;4691;47.612;7.610;2023-03-13T04:25:03;97181.66;;;8.66;100.00
9307;BME280;4691;47.612;7.610;2023-03-13T04:27:28;97181.16;;;8.81;100.00
9307;BME280;4691;47.612;7.610;2023-03-13T04:29:54;97203.78;;;8.77;100.00
9307;BME280;4691;47.612;7.610;2023-03-13T04:32:19;97201.69;;;8.70;100.00
9307;BME280;4691;47.612;7.610;2023-03-13T04:34:44;97201.97;;;8.67;100.00
9307;BME280;4691;47.612;7.610;2023-03-13T04:37:09;97200.84;;;8.70;100.00
9307;BME280;4691;47.612;7.610;2023-03-13T04:39:35;97207.72;;;8.72;100.00
9307;BME280;4691;47.612;7.610;2023-03-13T04:42:00;97218.66;;;8.69;100.00
9307;BME280;4691;47.612;7.610;2023-03-13T04:44:25;97223.16;;;8.69;100.00
9307;BME280;4691;47.612;7.610;2023-03-13T04:46:51;97209.25;;;8.75;100.00
9307;BME280;4691;47.612;7.610;2023-03-13T04:49:16;97215.41;;;8.76;100.00
9307;BME280;4691;47.612;7.610;2023-03-13T04:51:42;97190.84;;;8.82;100.00
9307;BME280;4691;47.612;7.610;2023-03-13T04:54:08;97188.50;;;8.79;100.00
9307;BME280;4691;47.612;7.610;2023-03-13T04:56:33;97187.69;;;8.68;100.00
9307;BME280;4691;47.612;7.610;2023-03-13T04:58:58;97182.19;;;8.70;100.00
9307;BME280;4691;47.612;7.610;2023-03-13T05:01:24;97177.44;;;8.74;100.00
9307;BME280;4691;47.612;7.610;2023-03-13T05:03:49;97182.03;;;8.81;100.00
9307;BME280;4691;47.612;7.610;2023-03-13T05:06:15;97161.94;;;8.87;100.00
9307;BME280;4691;47.612;7.610;2023-03-13T05:08:40;97170.63;;;8.89;100.00
9307;BME280;4691;47.612;7.610;2023-03-13T05:11:05;97189.72;;;8.84;100.00
9307;BME280;4691;47.612;7.610;2023-03-13T05:13:30;97188.50;;;8.79;100.00
9307;BME280;4691;47.612;7.610;2023-03-13T05:15:56;97184.44;;;8.75;100.00
9307;BME280;4691;47.612;7.610;2023-03-13T05:18:22;97185.97;;;8.77;100.00
9307;BME280;4691;47.612;7.610;2023-03-13T05:20:47;97178.56;;;8.71;100.00
9307;BME280;4691;47.612;7.610;2023-03-13T05:23:12;97182.50;;;8.67;100.00
9307;BME280;4691;47.612;7.610;2023-03-13T05:25:38;97174.50;;;8.67;100.00
9307;BME280;4691;47.612;7.610;2023-03-13T05:28:03;97174.38;;;8.68;100.00
9307;BME280;4691;47.612;7.610;2023-03-13T05:30:29;97189.66;;;8.66;100.00
9307;BME280;4691;47.612;7.610;2023-03-13T05:32:54;97180.84;;;8.66;100.00
9307;BME280;4691;47.612;7.610;2023-03-13T05:35:20;97160.78;;;8.62;100.00
9307;BME280;4691;47.612;7.610;2023-03-13T05:37:45;97166.84;;;8.54;100.00
9307;BME280;4691;47.612;7.610;2023-03-13T05:40:11;97162.63;;;8.61;100.00
9307;BME280;4691;47.612;7.610;2023-03-13T05:42:37;97161.63;;;8.62;100.00
9307;BME280;4691;47.612;7.610;2023-03-13T05:45:03;97178.59;;;8.61;100.00
9307;BME280;4691;47.612;7.610;2023-03-13T05:47:29;97177.13;;;8.77;100.00
9307;BME280;4691;47.612;7.610;2023-03-13T05:49:54;97165.91;;;8.73;100.00
9307;BME280;4691;47.612;7.610;2023-03-13T05:52:19;97175.00;;;8.80;100.00
9307;BME280;4691;47.612;7.610;2023-03-13T05:54:45;97176.22;;;8.86;100.00
9307;BME280;4691;47.612;7.610;2023-03-13T05:57:10;97183.56;;;8.84;100.00
9307;BME280;4691;47.612;7.610;2023-03-13T05:59:35;97192.47;;;8.92;100.00
9307;BME280;4691;47.612;7.610;2023-03-13T06:02:01;97189.28;;;8.89;100.00
9307;BME280;4691;47.612;7.610;2023-03-13T06:04:26;97191.94;;;8.89;100.00
9307;BME280;4691;47.612;7.610;2023-03-13T06:06:51;97187.19;;;8.83;100.00
9307;BME280;4691;47.612;7.610;2023-03-13T06:09:16;97178.69;;;8.97;100.00
9307;BME280;4691;47.612;7.610;2023-03-13T06:11:42;97170.53;;;8.99;100.00
9307;BME280;4691;47.612;7.610;2023-03-13T06:14:07;97164.69;;;8.95;100.00
9307;BME280;4691;47.612;7.610;2023-03-13T06:16:32;97154.78;;;9.05;100.00
9307;BME280;4691;47.612;7.610;2023-03-13T06:18:58;97157.91;;;9.01;100.00
9307;BME280;4691;47.612;7.610;2023-03-13T06:21:23;97148.38;;;8.98;100.00
9307;BME280;4691;47.612;7.610;2023-03-13T06:23:48;97160.25;;;9.04;100.00
9307;BME280;4691;47.612;7.610;2023-03-13T06:26:14;97142.75;;;9.01;100.00
9307;BME280;4691;47.612;7.610;2023-03-13T06:28:39;97150.34;;;8.96;100.00
9307;BME280;4691;47.612;7.610;2023-03-13T06:31:05;97144.66;;;9.09;100.00
9307;BME280;4691;47.612;7.610;2023-03-13T06:33:31;97141.09;;;9.18;100.00
9307;BME280;4691;47.612;7.610;2023-03-13T06:35:59;97151.75;;;9.36;100.00
9307;BME280;4691;47.612;7.610;2023-03-13T06:38:24;97156.31;;;9.62;100.00
9307;BME280;4691;47.612;7.610;2023-03-13T06:40:49;97161.66;;;9.62;100.00
9307;BME280;4691;47.612;7.610;2023-03-13T06:43:15;97181.94;;;9.72;100.00
9307;BME280;4691;47.612;7.610;2023-03-13T06:45:40;97192.47;;;9.74;100.00
9307;BME280;4691;47.612;7.610;2023-03-13T06:48:06;97206.19;;;9.61;100.00
9307;BME280;4691;47.612;7.610;2023-03-13T06:50:31;97222.59;;;9.66;100.00
9307;BME280;4691;47.612;7.610;2023-03-13T06:52:56;97226.47;;;9.72;100.00
9307;BME280;4691;47.612;7.610;2023-03-13T06:55:22;97236.59;;;9.86;100.00
9307;BME280;4691;47.612;7.610;2023-03-13T06:57:49;97232.31;;;9.75;100.00
9307;BME280;4691;47.612;7.610;2023-03-13T07:00:15;97248.28;;;9.85;100.00
9307;BME280;4691;47.612;7.610;2023-03-13T07:02:40;97245.97;;;9.90;100.00
9307;BME280;4691;47.612;7.610;2023-03-13T07:05:06;97243.59;;;10.05;100.00
9307;BME280;4691;47.612;7.610;2023-03-13T07:07:32;97247.38;;;9.94;100.00
9307;BME280;4691;47.612;7.610;2023-03-13T07:09:58;97241.41;;;10.00;100.00
9307;BME280;4691;47.612;7.610;2023-03-13T07:12:23;97237.13;;;10.08;100.00
9307;BME280;4691;47.612;7.610;2023-03-13T07:14:48;97235.19;;;10.18;100.00
9307;BME280;4691;47.612;7.610;2023-03-13T07:17:14;97235.19;;;10.36;100.00
9307;BME280;4691;47.612;7.610;2023-03-13T07:19:39;97255.56;;;10.63;100.00
9307;BME280;4691;47.612;7.610;2023-03-13T07:22:04;97248.09;;;10.40;100.00
9307;BME280;4691;47.612;7.610;2023-03-13T07:24:29;97232.19;;;10.65;100.00
9307;BME280;4691;47.612;7.610;2023-03-13T07:26:56;97238.56;;;10.72;100.00
9307;BME280;4691;47.612;7.610;2023-03-13T07:29:22;97229.22;;;10.76;100.00
9307;BME280;4691;47.612;7.610;2023-03-13T07:31:48;97243.38;;;10.95;100.00
9307;BME280;4691;47.612;7.610;2023-03-13T07:34:13;97268.00;;;11.15;100.00
9307;BME280;4691;47.612;7.610;2023-03-13T07:36:38;97316.00;;;11.16;100.00
9307;BME280;4691;47.612;7.610;2023-03-13T07:39:05;97347.09;;;11.17;100.00
9307;BME280;4691;47.612;7.610;2023-03-13T07:41:31;97351.69;;;11.67;100.00
9307;BME280;4691;47.612;7.610;2023-03-13T07:43:56;97388.78;;;11.54;100.00
9307;BME280;4691;47.612;7.610;2023-03-13T07:46:21;97406.09;;;11.76;100.00
9307;BME280;4691;47.612;7.610;2023-03-13T07:48:47;97426.50;;;12.03;100.00
9307;BME280;4691;47.612;7.610;2023-03-13T07:51:18;97435.59;;;11.84;100.00
9307;BME280;4691;47.612;7.610;2023-03-13T07:53:44;97429.03;;;11.78;100.00
9307;BME280;4691;47.612;7.610;2023-03-13T07:56:13;97432.88;;;11.76;100.00
9307;BME280;4691;47.612;7.610;2023-03-13T07:58:39;97438.97;;;11.52;100.00
9307;BME280;4691;47.612;7.610;2023-03-13T08:01:09;97426.22;;;11.46;100.00
9307;BME280;4691;47.612;7.610;2023-03-13T08:03:35;97420.75;;;11.29;100.00
9307;BME280;4691;47.612;7.610;2023-03-13T08:06:07;97418.41;;;11.26;100.00
9307;BME280;4691;47.612;7.610;2023-03-13T08:08:33;97417.19;;;11.47;100.00
9307;BME280;4691;47.612;7.610;2023-03-13T08:11:06;97422.22;;;11.50;100.00
9307;BME280;4691;47.612;7.610;2023-03-13T08:13:32;97427.56;;;11.50;100.00
9307;BME280;4691;47.612;7.610;2023-03-13T08:16:12;97416.69;;;11.86;100.00
9307;BME280;4691;47.612;7.610;2023-03-13T08:18:40;97433.53;;;12.12;100.00
9307;BME280;4691;47.612;7.610;2023-03-13T08:21:08;97442.81;;;12.34;100.00
9307;BME280;4691;47.612;7.610;2023-03-13T08:23:34;97461.31;;;12.78;100.00
9307;BME280;4691;47.612;7.610;2023-03-13T08:26:04;97507.56;;;12.64;100.00
9307;BME280;4691;47.612;7.610;2023-03-13T08:28:30;97516.66;;;13.20;100.00
9307;BME280;4691;47.612;7.610;2023-03-13T08:30:55;97524.91;;;13.43;100.00
9307;BME280;4691;47.612;7.610;2023-03-13T08:33:20;97559.44;;;13.87;100.00
9307;BME280;4691;47.612;7.610;2023-03-13T08:35:45;97582.94;;;13.93;100.00
9307;BME280;4691;47.612;7.610;2023-03-13T08:38:11;97598.03;;;13.94;100.00
9307;BME280;4691;47.612;7.610;2023-03-13T08:40:36;97582.78;;;13.95;100.00
9307;BME280;4691;47.612;7.610;2023-03-13T08:43:01;97599.19;;;14.08;100.00
9307;BME280;4691;47.612;7.610;2023-03-13T08:45:26;97607.56;;;14.22;100.00
9307;BME280;4691;47.612;7.610;2023-03-13T08:47:52;97638.09;;;14.45;100.00
9307;BME280;4691;47.612;7.610;2023-03-13T08:50:18;97647.63;;;14.64;100.00
9307;BME280;4691;47.612;7.610;2023-03-13T08:52:44;97671.28;;;14.85;100.00
9307;BME280;4691;47.612;7.610;2023-03-13T08:55:09;97671.41;;;14.92;100.00
9307;BME280;4691;47.612;7.610;2023-03-13T08:57:34;97642.47;;;14.94;100.00
9307;BME280;4691;47.612;7.610;2023-03-13T09:00:00;97629.78;;;15.34;100.00
9307;BME280;4691;47.612;7.610;2023-03-13T09:02:25;97680.84;;;15.50;100.00
9307;BME280;4691;47.612;7.610;2023-03-13T09:04:50;97700.97;;;15.62;100.00
9307;BME280;4691;47.612;7.610;2023-03-13T09:07:15;97697.97;;;15.88;100.00
9307;BME280;4691;47.612;7.610;2023-03-13T09:09:41;97725.06;;;16.10;100.00
9307;BME280;4691;47.612;7.610;2023-03-13T09:12:07;97740.03;;;16.13;100.00
9307;BME280;4691;47.612;7.610;2023-03-13T09:14:32;97744.38;;;15.99;100.00
9307;BME280;4691;47.612;7.610;2023-03-13T09:16:58;97735.41;;;16.44;100.00
9307;BME280;4691;47.612;7.610;2023-03-13T09:19:23;97755.97;;;16.83;100.00
9307;BME280;4691;47.612;7.610;2023-03-13T09:21:49;97775.13;;;16.50;100.00
9307;BME280;4691;47.612;7.610;2023-03-13T09:24:14;97754.25;;;16.67;100.00
9307;BME280;4691;47.612;7.610;2023-03-13T09:26:40;97768.25;;;17.01;100.00
9307;BME280;4691;47.612;7.610;2023-03-13T09:29:05;97791.47;;;17.61;100.00
9307;BME280;4691;47.612;7.610;2023-03-13T09:31:32;97815.44;;;17.64;100.00
9307;BME280;4691;47.612;7.610;2023-03-13T09:33:58;97836.03;;;17.80;100.00
9307;BME280;4691;47.612;7.610;2023-03-13T09:36:24;97837.72;;;18.17;100.00
9307;BME280;4691;47.612;7.610;2023-03-13T09:38:54;97868.13;;;18.62;100.00
9307;BME280;4691;47.612;7.610;2023-03-13T09:41:31;97856.69;;;18.82;100.00
9307;BME280;4691;47.612;7.610;2023-03-13T09:44:19;97846.19;;;18.29;100.00
9307;BME280;4691;47.612;7.610;2023-03-13T09:49:37;97875.09;;;18.93;100.00
9307;BME280;4691;47.612;7.610;2023-03-13T09:52:18;97874.47;;;19.82;100.00
9307;BME280;4691;47.612;7.610;2023-03-13T10:00:05;97862.41;;;19.91;100.00
9307;BME280;4691;47.612;7.610;2023-03-13T10:02:37;97868.91;;;21.38;100.00
9307;BME280;4691;47.612;7.610;2023-03-13T10:07:47;97865.03;;;20.39;100.00
9307;BME280;4691;47.612;7.610;2023-03-13T10:10:41;97858.56;;;19.72;100.00
9307;BME280;4691;47.612;7.610;2023-03-13T10:13:31;97868.72;;;21.98;100.00
9307;BME280;4691;47.612;7.610;2023-03-13T10:16:04;97885.84;;;24.19;100.00
9307;BME280;4691;47.612;7.610;2023-03-13T10:18:33;97896.47;;;23.72;100.00
9307;BME280;4691;47.612;7.610;2023-03-13T10:21:01;97899.81;;;22.99;100.00
9307;BME280;4691;47.612;7.610;2023-03-13T10:23:38;97912.66;;;24.59;100.00
9307;BME280;4691;47.612;7.610;2023-03-13T10:26:05;97912.38;;;25.21;100.00
9307;BME280;4691;47.612;7.610;2023-03-13T10:28:35;97895.56;;;23.78;100.00
9307;BME280;4691;47.612;7.610;2023-03-13T10:31:12;97886.63;;;23.89;100.00
9307;BME280;4691;47.612;7.610;2023-03-13T10:33:39;97876.88;;;25.03;100.00
9307;BME280;4691;47.612;7.610;2023-03-13T10:36:06;97884.78;;;25.70;100.00
9307;BME280;4691;47.612;7.610;2023-03-13T10:38:44;97894.09;;;26.61;100.00
9307;BME280;4691;47.612;7.610;2023-03-13T10:41:30;97888.38;;;28.20;100.00
9307;BME280;4691;47.612;7.610;2023-03-13T10:43:59;97880.78;;;26.99;100.00
9307;BME280;4691;47.612;7.610;2023-03-13T10:46:31;97949.34;;;23.71;100.00
9307;BME280;4691;47.612;7.610;2023-03-13T10:49:00;97926.06;;;25.45;100.00
9307;BME280;4691;47.612;7.610;2023-03-13T10:51:29;97876.81;;;27.57;100.00
9307;BME280;4691;47.612;7.610;2023-03-13T10:53:57;97892.53;;;26.25;100.00
9307;BME280;4691;47.612;7.610;2023-03-13T10:56:28;97887.97;;;27.17;100.00
9307;BME280;4691;47.612;7.610;2023-03-13T10:58:54;97876.22;;;28.38;100.00
9307;BME280;4691;47.612;7.610;2023-03-13T11:01:21;97843.78;;;28.35;100.00
9307;BME280;4691;47.612;7.610;2023-03-13T11:03:48;97766.31;;;32.26;100.00
9307;BME280;4691;47.612;7.610;2023-03-13T11:06:23;97798.91;;;30.26;100.00
9307;BME280;4691;47.612;7.610;2023-03-13T11:08:57;97866.28;;;27.88;100.00
9307;BME280;4691;47.612;7.610;2023-03-13T11:11:23;97839.88;;;28.53;100.00
9307;BME280;4691;47.612;7.610;2023-03-13T11:13:54;97790.16;;;30.50;100.00
9307;BME280;4691;47.612;7.610;2023-03-13T11:16:26;97825.72;;;28.98;100.00
9307;BME280;4691;47.612;7.610;2023-03-13T11:22:33;97858.28;;;27.30;100.00
9307;BME280;4691;47.612;7.610;2023-03-13T11:28:04;97771.84;;;31.72;100.00
9307;BME280;4691;47.612;7.610;2023-03-13T11:47:55;97726.78;;;28.76;100.00
9307;BME280;4691;47.612;7.610;2023-03-13T11:53:13;97717.75;;;29.81;100.00
9307;BME280;4691;47.612;7.610;2023-03-13T11:56:07;97656.69;;;30.35;100.00
9307;BME280;4691;47.612;7.610;2023-03-13T12:01:15;97672.06;;;29.90;100.00
9307;BME280;4691;47.612;7.610;2023-03-13T12:04:04;97609.50;;;31.53;100.00
9307;BME280;4691;47.612;7.610;2023-03-13T12:06:34;97600.97;;;31.94;100.00
9307;BME280;4691;47.612;7.610;2023-03-13T12:09:05;97707.16;;;28.62;100.00
9307;BME280;4691;47.612;7.610;2023-03-13T12:11:54;97636.47;;;29.79;100.00
9307;BME280;4691;47.612;7.610;2023-03-13T12:14:41;97634.16;;;31.39;100.00
9307;BME280;4691;47.612;7.610;2023-03-13T12:17:12;97504.84;;;34.94;100.00
9307;BME280;4691;47.612;7.610;2023-03-13T12:19:54;97510.69;;;35.57;100.00
9307;BME280;4691;47.612;7.610;2023-03-13T12:22:35;97462.59;;;35.92;100.00
9307;BME280;4691;47.612;7.610;2023-03-13T12:25:16;97583.69;;;28.66;100.00
9307;BME280;4691;47.612;7.610;2023-03-13T12:27:49;97524.75;;;34.41;100.00
9307;BME280;4691;47.612;7.610;2023-03-13T12:33:43;97397.53;;;36.33;100.00
9307;BME280;4691;47.612;7.610;2023-03-13T12:36:22;97343.28;;;37.32;100.00
9307;BME280;4691;47.612;7.610;2023-03-13T12:39:05;97383.50;;;34.95;100.00
9307;BME280;4691;47.612;7.610;2023-03-13T12:41:42;97423.81;;;32.68;100.00
9307;BME280;4691;47.612;7.610;2023-03-13T12:44:13;97403.63;;;34.22;100.00
9307;BME280;4691;47.612;7.610;2023-03-13T12:46:46;97453.31;;;31.32;100.00
9307;BME280;4691;47.612;7.610;2023-03-13T12:49:34;97530.25;;;28.09;100.00
9307;BME280;4691;47.612;7.610;2023-03-13T12:54:55;97495.94;;;29.38;100.00
9307;BME280;4691;47.612;7.610;2023-03-13T13:00:21;97346.56;;;34.72;100.00
9307;BME280;4691;47.612;7.610;2023-03-13T13:03:01;97471.75;;;28.09;100.00
9307;BME280;4691;47.612;7.610;2023-03-13T13:05:30;97506.72;;;27.54;100.00
9307;BME280;4691;47.612;7.610;2023-03-13T13:07:56;97491.53;;;30.18;100.00
9307;BME280;4691;47.612;7.610;2023-03-13T13:10:25;97438.69;;;32.24;100.00
9307;BME280;4691;47.612;7.610;2023-03-13T13:16:10;97395.47;;;29.35;100.00
9307;BME280;4691;47.612;7.610;2023-03-13T13:18:39;97430.41;;;28.41;100.00
9307;BME280;4691;47.612;7.610;2023-03-13T13:23:40;97418.03;;;29.22;100.00
9307;BME280;4691;47.612;7.610;2023-03-13T13:26:44;97351.53;;;32.07;100.00
9307;BME280;4691;47.612;7.610;2023-03-13T13:31:55;97363.34;;;30.21;100.00
9307;BME280;4691;47.612;7.610;2023-03-13T13:39:48;97430.19;;;26.10;100.00
9307;BME280;4691;47.612;7.610;2023-03-13T13:47:45;97327.16;;;29.73;100.00
9307;BME280;4691;47.612;7.610;2023-03-13T13:50:20;97274.41;;;31.82;100.00
9307;BME280;4691;47.612;7.610;2023-03-13T13:52:47;97348.00;;;28.46;100.00
9307;BME280;4691;47.612;7.610;2023-03-13T13:57:51;97272.63;;;31.67;100.00
9307;BME280;4691;47.612;7.610;2023-03-13T14:00:28;97283.03;;;31.22;100.00
9307;BME280;4691;47.612;7.610;2023-03-13T14:02:55;97266.09;;;32.68;100.00
9307;BME280;4691;47.612;7.610;2023-03-13T14:05:31;97259.63;;;33.24;100.00
9307;BME280;4691;47.612;7.610;2023-03-13T14:08:07;97173.69;;;33.85;100.00
9307;BME280;4691;47.612;7.610;2023-03-13T14:10:45;97302.28;;;28.19;100.00
9307;BME280;4691;47.612;7.610;2023-03-13T14:13:16;97296.75;;;28.09;100.00
9307;BME280;4691;47.612;7.610;2023-03-13T14:15:45;97231.34;;;31.28;100.00
9307;BME280;4691;47.612;7.610;2023-03-13T14:18:25;97321.38;;;26.27;100.00
9307;BME280;4691;47.612;7.610;2023-03-13T14:20:58;97348.97;;;25.60;100.00
9307;BME280;4691;47.612;7.610;2023-03-13T14:23:32;97359.22;;;25.31;100.00
9307;BME280;4691;47.612;7.610;2023-03-13T14:26:08;97371.03;;;24.57;100.00
9307;BME280;4691;47.612;7.610;2023-03-13T14:28:33;97365.25;;;25.33;100.00
9307;BME280;4691;47.612;7.610;2023-03-13T14:30:59;97253.47;;;28.47;100.00
9307;BME280;4691;47.612;7.610;2023-03-13T14:33:25;97322.06;;;25.74;100.00
9307;BME280;4691;47.612;7.610;2023-03-13T14:35:53;97219.13;;;29.86;100.00
9307;BME280;4691;47.612;7.610;2023-03-13T14:38:22;97320.66;;;25.15;100.00